sensor_id;sensor_type;location;lat;lon;timestamp;temperature;humidity
64855;DHT22;51321;50.428;8.378;2022-07-23T00:00:28;19.90;99.90
64855;DHT22;51321;50.428;8.378;2022-07-23T00:02:49;19.70;99.90
64855;DHT22;51321;50.428;8.378;2022-07-23T00:05:11;19.60;99.90
64855;DHT22;51321;50.428;8.378;2022-07-23T00:07:34;19.50;99.90
64855;DHT22;51321;50.428;8.378;2022-07-23T00:09:56;19.40;99.90
64855;DHT22;51321;50.428;8.378;2022-07-23T00:12:18;19.40;99.90
64855;DHT22;51321;50.428;8.378;2022-07-23T00:14:40;19.50;99.90
64855;DHT22;51321;50.428;8.378;2022-07-23T00:17:02;19.50;99.90
64855;DHT22;51321;50.428;8.378;2022-07-23T00:19:24;19.50;99.90
64855;DHT22;51321;50.428;8.378;2022-07-23T00:21:46;19.50;99.90
64855;DHT22;51321;50.428;8.378;2022-07-23T00:24:09;19.50;99.90
64855;DHT22;51321;50.428;8.378;2022-07-23T00:26:31;19.50;99.90
64855;DHT22;51321;50.428;8.378;2022-07-23T00:28:53;19.40;99.90
64855;DHT22;51321;50.428;8.378;2022-07-23T00:31:14;19.30;99.90
64855;DHT22;51321;50.428;8.378;2022-07-23T00:33:36;19.30;99.90
64855;DHT22;51321;50.428;8.378;2022-07-23T00:35:58;19.40;99.90
64855;DHT22;51321;50.428;8.378;2022-07-23T00:38:20;19.40;99.90
64855;DHT22;51321;50.428;8.378;2022-07-23T00:40:43;19.20;99.90
64855;DHT22;51321;50.428;8.378;2022-07-23T00:43:05;19.10;99.90
64855;DHT22;51321;50.428;8.378;2022-07-23T00:45:28;19.10;99.90
64855;DHT22;51321;50.428;8.378;2022-07-23T00:47:50;19.10;99.90
64855;DHT22;51321;50.428;8.378;2022-07-23T00:50:13;18.90;99.90
64855;DHT22;51321;50.428;8.378;2022-07-23T00:52:36;18.90;99.90
64855;DHT22;51321;50.428;8.378;2022-07-23T00:54:58;19.10;99.90
64855;DHT22;51321;50.428;8.378;2022-07-23T00:57:22;19.10;99.90
64855;DHT22;51321;50.428;8.378;2022-07-23T00:59:43;19.20;99.90
64855;DHT22;51321;50.428;8.378;2022-07-23T01:02:06;19.20;99.90
64855;DHT22;51321;50.428;8.378;2022-07-23T01:04:28;19.20;99.90
64855;DHT22;51321;50.428;8.378;2022-07-23T01:06:50;19.20;99.90
64855;DHT22;51321;50.428;8.378;2022-07-23T01:09:12;19.20;99.90
64855;DHT22;51321;50.428;8.378;2022-07-23T01:11:35;19.30;99.90
64855;DHT22;51321;50.428;8.378;2022-07-23T01:14:10;19.20;99.90
64855;DHT22;51321;50.428;8.378;2022-07-23T01:16:32;19.20;99.90
64855;DHT22;51321;50.428;8.378;2022-07-23T01:18:54;19.30;99.90
64855;DHT22;51321;50.428;8.378;2022-07-23T01:21:18;19.30;99.90
64855;DHT22;51321;50.428;8.378;2022-07-23T01:23:41;19.30;99.90
64855;DHT22;51321;50.428;8.378;2022-07-23T01:26:03;19.30;99.90
64855;DHT22;51321;50.428;8.378;2022-07-23T01:28:25;19.20;99.90
64855;DHT22;51321;50.428;8.378;2022-07-23T01:30:50;19.20;99.90
64855;DHT22;51321;50.428;8.378;2022-07-23T01:33:12;19.10;99.90
64855;DHT22;51321;50.428;8.378;2022-07-23T01:35:41;19.20;99.90
64855;DHT22;51321;50.428;8.378;2022-07-23T01:38:04;19.20;99.90
64855;DHT22;51321;50.428;8.378;2022-07-23T01:40:27;19.20;99.90
64855;DHT22;51321;50.428;8.378;2022-07-23T01:42:50;19.40;99.90
64855;DHT22;51321;50.428;8.378;2022-07-23T01:45:13;19.30;99.90
64855;DHT22;51321;50.428;8.378;2022-07-23T01:47:40;19.10;99.90
64855;DHT22;51321;50.428;8.378;2022-07-23T01:50:02;19.00;99.90
64855;DHT22;51321;50.428;8.378;2022-07-23T01:52:47;19.00;99.90
64855;DHT22;51321;50.428;8.378;2022-07-23T01:55:09;19.10;99.90
64855;DHT22;51321;50.428;8.378;2022-07-23T01:57:35;19.00;99.90
64855;DHT22;51321;50.428;8.378;2022-07-23T01:59:58;19.00;99.90
64855;DHT22;51321;50.428;8.378;2022-07-23T02:02:20;19.00;99.90
64855;DHT22;51321;50.428;8.378;2022-07-23T02:04:41;19.00;99.90
64855;DHT22;51321;50.428;8.378;2022-07-23T02:07:04;19.00;99.90
64855;DHT22;51321;50.428;8.378;2022-07-23T02:09:26;19.00;99.90
64855;DHT22;51321;50.428;8.378;2022-07-23T02:11:48;18.90;99.90
64855;DHT22;51321;50.428;8.378;2022-07-23T02:14:11;18.90;99.90
64855;DHT22;51321;50.428;8.378;2022-07-23T02:16:34;18.90;99.90
64855;DHT22;51321;50.428;8.378;2022-07-23T02:18:56;18.80;99.90
64855;DHT22;51321;50.428;8.378;2022-07-23T02:21:18;18.90;99.90
64855;DHT22;51321;50.428;8.378;2022-07-23T02:23:40;18.80;99.90
64855;DHT22;51321;50.428;8.378;2022-07-23T02:26:02;18.70;99.90
64855;DHT22;51321;50.428;8.378;2022-07-23T02:28:24;18.80;99.90
64855;DHT22;51321;50.428;8.378;2022-07-23T02:30:47;18.70;99.90
64855;DHT22;51321;50.428;8.378;2022-07-23T02:33:10;18.70;99.90
64855;DHT22;51321;50.428;8.378;2022-07-23T02:35:33;18.70;99.90
64855;DHT22;51321;50.428;8.378;2022-07-23T02:37:56;18.70;99.90
64855;DHT22;51321;50.428;8.378;2022-07-23T02:40:18;18.60;99.90
64855;DHT22;51321;50.428;8.378;2022-07-23T02:42:41;18.60;99.90
64855;DHT22;51321;50.428;8.378;2022-07-23T02:45:05;18.50;99.90
64855;DHT22;51321;50.428;8.378;2022-07-23T02:47:28;18.60;99.90
64855;DHT22;51321;50.428;8.378;2022-07-23T02:49:51;18.70;99.90
64855;DHT22;51321;50.428;8.378;2022-07-23T02:52:13;18.60;99.90
64855;DHT22;51321;50.428;8.378;2022-07-23T02:54:36;18.50;99.90
64855;DHT22;51321;50.428;8.378;2022-07-23T02:56:58;18.60;99.90
64855;DHT22;51321;50.428;8.378;2022-07-23T02:59:21;18.50;99.90
64855;DHT22;51321;50.428;8.378;2022-07-23T03:01:42;18.20;99.90
64855;DHT22;51321;50.428;8.378;2022-07-23T03:04:06;18.20;99.90
64855;DHT22;51321;50.428;8.378;2022-07-23T03:06:27;18.10;99.90
64855;DHT22;51321;50.428;8.378;2022-07-23T03:08:49;18.10;99.90
64855;DHT22;51321;50.428;8.378;2022-07-23T03:11:11;18.10;99.90
64855;DHT22;51321;50.428;8.378;2022-07-23T03:13:35;18.10;99.90
64855;DHT22;51321;50.428;8.378;2022-07-23T03:15:56;18.10;99.90
64855;DHT22;51321;50.428;8.378;2022-07-23T03:18:18;18.10;99.90
64855;DHT22;51321;50.428;8.378;2022-07-23T03:20:41;18.10;99.90
64855;DHT22;51321;50.428;8.378;2022-07-23T03:23:04;18.00;99.90
64855;DHT22;51321;50.428;8.378;2022-07-23T03:25:26;18.00;99.90
64855;DHT22;51321;50.428;8.378;2022-07-23T03:27:48;18.10;99.90
64855;DHT22;51321;50.428;8.378;2022-07-23T03:30:11;18.10;99.90
64855;DHT22;51321;50.428;8.378;2022-07-23T03:32:33;17.90;99.90
64855;DHT22;51321;50.428;8.378;2022-07-23T03:34:55;17.80;99.90
64855;DHT22;51321;50.428;8.378;2022-07-23T03:37:19;17.90;99.90
64855;DHT22;51321;50.428;8.378;2022-07-23T03:39:41;18.00;99.90
64855;DHT22;51321;50.428;8.378;2022-07-23T03:42:04;18.10;99.90
64855;DHT22;51321;50.428;8.378;2022-07-23T03:44:26;18.20;99.90
64855;DHT22;51321;50.428;8.378;2022-07-23T03:46:48;18.20;99.90
64855;DHT22;51321;50.428;8.378;2022-07-23T03:49:10;18.20;99.90
64855;DHT22;51321;50.428;8.378;2022-07-23T03:51:32;18.10;99.90
64855;DHT22;51321;50.428;8.378;2022-07-23T03:53:55;17.80;99.90
64855;DHT22;51321;50.428;8.378;2022-07-23T03:56:17;17.60;99.90
64855;DHT22;51321;50.428;8.378;2022-07-23T03:58:39;17.50;99.90
64855;DHT22;51321;50.428;8.378;2022-07-23T04:01:00;17.60;99.90
64855;DHT22;51321;50.428;8.378;2022-07-23T04:03:22;17.70;99.90
64855;DHT22;51321;50.428;8.378;2022-07-23T04:05:44;17.70;99.90
64855;DHT22;51321;50.428;8.378;2022-07-23T04:08:08;17.60;99.90
64855;DHT22;51321;50.428;8.378;2022-07-23T04:10:35;17.50;99.90
64855;DHT22;51321;50.428;8.378;2022-07-23T04:12:59;17.40;99.90
64855;DHT22;51321;50.428;8.378;2022-07-23T04:15:21;17.40;99.90
64855;DHT22;51321;50.428;8.378;2022-07-23T04:17:43;17.50;99.90
64855;DHT22;51321;50.428;8.378;2022-07-23T04:20:06;17.60;99.90
64855;DHT22;51321;50.428;8.378;2022-07-23T04:22:34;17.70;99.90
64855;DHT22;51321;50.428;8.378;2022-07-23T04:24:56;17.80;99.90
64855;DHT22;51321;50.428;8.378;2022-07-23T04:27:19;17.90;99.90
64855;DHT22;51321;50.428;8.378;2022-07-23T04:29:41;17.90;99.90
64855;DHT22;51321;50.428;8.378;2022-07-23T04:32:03;18.00;99.90
64855;DHT22;51321;50.428;8.378;2022-07-23T04:34:25;18.20;99.90
64855;DHT22;51321;50.428;8.378;2022-07-23T04:36:48;18.10;99.90
64855;DHT22;51321;50.428;8.378;2022-07-23T04:39:10;18.00;99.90
64855;DHT22;51321;50.428;8.378;2022-07-23T04:41:32;18.00;99.90
64855;DHT22;51321;50.428;8.378;2022-07-23T04:43:56;18.00;99.90
64855;DHT22;51321;50.428;8.378;2022-07-23T04:46:18;18.00;99.90
64855;DHT22;51321;50.428;8.378;2022-07-23T04:48:43;17.90;99.90
64855;DHT22;51321;50.428;8.378;2022-07-23T04:51:05;17.90;99.90
64855;DHT22;51321;50.428;8.378;2022-07-23T04:53:28;17.90;99.90
64855;DHT22;51321;50.428;8.378;2022-07-23T04:55:54;17.90;99.90
64855;DHT22;51321;50.428;8.378;2022-07-23T04:58:16;18.00;99.90
64855;DHT22;51321;50.428;8.378;2022-07-23T05:00:39;18.20;99.90
64855;DHT22;51321;50.428;8.378;2022-07-23T05:03:01;18.30;99.90
64855;DHT22;51321;50.428;8.378;2022-07-23T05:05:23;18.50;99.90
64855;DHT22;51321;50.428;8.378;2022-07-23T05:07:47;18.60;99.90
64855;DHT22;51321;50.428;8.378;2022-07-23T05:10:08;18.60;99.90
64855;DHT22;51321;50.428;8.378;2022-07-23T05:12:31;18.40;99.90
64855;DHT22;51321;50.428;8.378;2022-07-23T05:14:53;18.40;99.90
64855;DHT22;51321;50.428;8.378;2022-07-23T05:17:17;18.50;99.90
64855;DHT22;51321;50.428;8.378;2022-07-23T05:19:39;18.60;99.90
64855;DHT22;51321;50.428;8.378;2022-07-23T05:22:01;18.50;99.90
64855;DHT22;51321;50.428;8.378;2022-07-23T05:24:23;18.60;99.90
64855;DHT22;51321;50.428;8.378;2022-07-23T05:26:45;18.60;99.90
64855;DHT22;51321;50.428;8.378;2022-07-23T05:29:07;18.70;99.90
64855;DHT22;51321;50.428;8.378;2022-07-23T05:31:29;18.90;99.90
64855;DHT22;51321;50.428;8.378;2022-07-23T05:33:53;19.00;99.90
64855;DHT22;51321;50.428;8.378;2022-07-23T05:36:15;19.20;99.90
64855;DHT22;51321;50.428;8.378;2022-07-23T05:38:51;19.30;99.90
64855;DHT22;51321;50.428;8.378;2022-07-23T05:41:13;19.40;99.90
64855;DHT22;51321;50.428;8.378;2022-07-23T05:43:35;19.30;99.90
64855;DHT22;51321;50.428;8.378;2022-07-23T05:46:03;19.40;99.90
64855;DHT22;51321;50.428;8.378;2022-07-23T05:48:25;19.30;99.90
64855;DHT22;51321;50.428;8.378;2022-07-23T05:50:57;19.50;99.90
64855;DHT22;51321;50.428;8.378;2022-07-23T05:53:26;19.20;99.90
64855;DHT22;51321;50.428;8.378;2022-07-23T05:55:54;19.20;99.90
64855;DHT22;51321;50.428;8.378;2022-07-23T05:58:16;19.20;99.90
64855;DHT22;51321;50.428;8.378;2022-07-23T06:00:38;19.40;99.90
64855;DHT22;51321;50.428;8.378;2022-07-23T06:03:00;19.60;99.90
64855;DHT22;51321;50.428;8.378;2022-07-23T06:05:24;19.50;99.90
64855;DHT22;51321;50.428;8.378;2022-07-23T06:07:49;19.70;99.90
64855;DHT22;51321;50.428;8.378;2022-07-23T06:10:11;20.00;99.90
64855;DHT22;51321;50.428;8.378;2022-07-23T06:12:33;20.10;99.90
64855;DHT22;51321;50.428;8.378;2022-07-23T06:14:55;19.80;99.90
64855;DHT22;51321;50.428;8.378;2022-07-23T06:17:17;19.90;99.90
64855;DHT22;51321;50.428;8.378;2022-07-23T06:19:39;19.90;99.10
64855;DHT22;51321;50.428;8.378;2022-07-23T06:22:01;20.20;97.80
64855;DHT22;51321;50.428;8.378;2022-07-23T06:24:24;20.40;97.80
64855;DHT22;51321;50.428;8.378;2022-07-23T06:26:47;20.40;97.00
64855;DHT22;51321;50.428;8.378;2022-07-23T06:29:09;20.40;97.00
64855;DHT22;51321;50.428;8.378;2022-07-23T06:31:31;20.60;96.80
64855;DHT22;51321;50.428;8.378;2022-07-23T06:33:52;20.50;97.20
64855;DHT22;51321;50.428;8.378;2022-07-23T06:36:14;20.60;96.30
64855;DHT22;51321;50.428;8.378;2022-07-23T06:38:36;20.30;96.40
64855;DHT22;51321;50.428;8.378;2022-07-23T06:40:59;20.20;97.20
64855;DHT22;51321;50.428;8.378;2022-07-23T06:43:21;20.10;96.90
64855;DHT22;51321;50.428;8.378;2022-07-23T06:45:48;20.40;97.00
64855;DHT22;51321;50.428;8.378;2022-07-23T06:48:10;20.40;96.90
64855;DHT22;51321;50.428;8.378;2022-07-23T06:50:32;20.20;96.20
64855;DHT22;51321;50.428;8.378;2022-07-23T06:52:53;20.20;95.90
64855;DHT22;51321;50.428;8.378;2022-07-23T06:55:15;20.40;96.10
64855;DHT22;51321;50.428;8.378;2022-07-23T06:57:40;20.30;94.50
64855;DHT22;51321;50.428;8.378;2022-07-23T07:00:03;20.40;94.80
64855;DHT22;51321;50.428;8.378;2022-07-23T07:02:26;20.70;94.80
64855;DHT22;51321;50.428;8.378;2022-07-23T07:04:49;20.70;94.40
64855;DHT22;51321;50.428;8.378;2022-07-23T07:07:11;20.60;95.00
64855;DHT22;51321;50.428;8.378;2022-07-23T07:09:33;20.50;95.00
64855;DHT22;51321;50.428;8.378;2022-07-23T07:11:55;20.50;95.40
64855;DHT22;51321;50.428;8.378;2022-07-23T07:14:18;20.50;94.80
64855;DHT22;51321;50.428;8.378;2022-07-23T07:16:40;20.40;95.40
64855;DHT22;51321;50.428;8.378;2022-07-23T07:19:02;20.20;96.00
64855;DHT22;51321;50.428;8.378;2022-07-23T07:21:23;20.30;95.90
64855;DHT22;51321;50.428;8.378;2022-07-23T07:23:45;20.30;96.00
64855;DHT22;51321;50.428;8.378;2022-07-23T07:26:07;20.30;95.80
64855;DHT22;51321;50.428;8.378;2022-07-23T07:28:29;20.20;96.10
64855;DHT22;51321;50.428;8.378;2022-07-23T07:30:52;20.20;96.20
64855;DHT22;51321;50.428;8.378;2022-07-23T07:33:14;20.30;96.30
64855;DHT22;51321;50.428;8.378;2022-07-23T07:35:35;20.30;96.30
64855;DHT22;51321;50.428;8.378;2022-07-23T07:37:57;20.30;96.40
64855;DHT22;51321;50.428;8.378;2022-07-23T07:40:19;20.30;96.50
64855;DHT22;51321;50.428;8.378;2022-07-23T07:42:45;20.40;96.80
64855;DHT22;51321;50.428;8.378;2022-07-23T07:45:07;20.50;96.60
64855;DHT22;51321;50.428;8.378;2022-07-23T07:47:30;20.30;97.10
64855;DHT22;51321;50.428;8.378;2022-07-23T07:49:52;20.50;97.30
64855;DHT22;51321;50.428;8.378;2022-07-23T07:52:14;20.70;97.80
64855;DHT22;51321;50.428;8.378;2022-07-23T07:54:36;20.90;97.60
64855;DHT22;51321;50.428;8.378;2022-07-23T07:56:58;20.80;97.20
64855;DHT22;51321;50.428;8.378;2022-07-23T07:59:20;20.90;97.10
64855;DHT22;51321;50.428;8.378;2022-07-23T08:01:41;21.10;96.80
64855;DHT22;51321;50.428;8.378;2022-07-23T08:04:05;21.20;96.10
64855;DHT22;51321;50.428;8.378;2022-07-23T08:06:27;21.20;95.90
64855;DHT22;51321;50.428;8.378;2022-07-23T08:08:49;21.30;95.70
64855;DHT22;51321;50.428;8.378;2022-07-23T08:11:10;21.40;95.00
64855;DHT22;51321;50.428;8.378;2022-07-23T08:13:32;21.80;95.00
64855;DHT22;51321;50.428;8.378;2022-07-23T08:15:54;22.10;93.50
64855;DHT22;51321;50.428;8.378;2022-07-23T08:18:16;22.00;93.30
64855;DHT22;51321;50.428;8.378;2022-07-23T08:20:39;22.20;93.10
64855;DHT22;51321;50.428;8.378;2022-07-23T08:23:04;22.40;93.40
64855;DHT22;51321;50.428;8.378;2022-07-23T08:25:28;22.40;92.40
64855;DHT22;51321;50.428;8.378;2022-07-23T08:27:50;22.40;92.80
64855;DHT22;51321;50.428;8.378;2022-07-23T08:30:13;22.30;93.30
64855;DHT22;51321;50.428;8.378;2022-07-23T08:32:47;22.30;92.40
64855;DHT22;51321;50.428;8.378;2022-07-23T08:35:08;22.20;92.10
64855;DHT22;51321;50.428;8.378;2022-07-23T08:37:32;22.00;92.10
64855;DHT22;51321;50.428;8.378;2022-07-23T08:39:53;21.90;92.90
64855;DHT22;51321;50.428;8.378;2022-07-23T08:42:17;22.30;92.10
64855;DHT22;51321;50.428;8.378;2022-07-23T08:44:44;22.40;88.20
64855;DHT22;51321;50.428;8.378;2022-07-23T08:47:06;22.40;89.60
64855;DHT22;51321;50.428;8.378;2022-07-23T08:49:28;22.60;90.70
64855;DHT22;51321;50.428;8.378;2022-07-23T08:51:50;23.00;89.10
64855;DHT22;51321;50.428;8.378;2022-07-23T08:54:14;22.90;86.50
64855;DHT22;51321;50.428;8.378;2022-07-23T08:56:35;22.70;88.30
64855;DHT22;51321;50.428;8.378;2022-07-23T08:58:57;22.70;86.50
64855;DHT22;51321;50.428;8.378;2022-07-23T09:01:19;22.90;86.60
64855;DHT22;51321;50.428;8.378;2022-07-23T09:03:41;23.00;86.30
64855;DHT22;51321;50.428;8.378;2022-07-23T09:06:06;23.10;86.00
64855;DHT22;51321;50.428;8.378;2022-07-23T09:08:35;23.40;86.40
64855;DHT22;51321;50.428;8.378;2022-07-23T09:11:00;23.60;83.30
64855;DHT22;51321;50.428;8.378;2022-07-23T09:13:24;23.40;83.40
64855;DHT22;51321;50.428;8.378;2022-07-23T09:15:49;23.30;84.70
64855;DHT22;51321;50.428;8.378;2022-07-23T09:18:15;22.90;85.00
64855;DHT22;51321;50.428;8.378;2022-07-23T09:20:37;23.30;84.00
64855;DHT22;51321;50.428;8.378;2022-07-23T09:22:59;23.20;84.90
64855;DHT22;51321;50.428;8.378;2022-07-23T09:25:20;23.60;86.00
64855;DHT22;51321;50.428;8.378;2022-07-23T09:27:54;23.60;86.80
64855;DHT22;51321;50.428;8.378;2022-07-23T09:30:17;23.50;87.00
64855;DHT22;51321;50.428;8.378;2022-07-23T09:32:39;23.70;85.10
64855;DHT22;51321;50.428;8.378;2022-07-23T09:35:00;24.30;84.70
64855;DHT22;51321;50.428;8.378;2022-07-23T09:37:22;24.10;82.50
64855;DHT22;51321;50.428;8.378;2022-07-23T09:39:45;24.30;83.30
64855;DHT22;51321;50.428;8.378;2022-07-23T09:42:13;24.10;83.50
64855;DHT22;51321;50.428;8.378;2022-07-23T09:44:41;24.40;84.20
64855;DHT22;51321;50.428;8.378;2022-07-23T09:47:04;24.50;84.00
64855;DHT22;51321;50.428;8.378;2022-07-23T09:49:28;24.30;84.50
64855;DHT22;51321;50.428;8.378;2022-07-23T09:51:53;24.80;83.70
64855;DHT22;51321;50.428;8.378;2022-07-23T09:54:25;25.20;82.20
64855;DHT22;51321;50.428;8.378;2022-07-23T09:56:47;25.50;81.70
64855;DHT22;51321;50.428;8.378;2022-07-23T09:59:09;25.50;80.50
64855;DHT22;51321;50.428;8.378;2022-07-23T10:01:33;25.00;80.40
64855;DHT22;51321;50.428;8.378;2022-07-23T10:03:55;25.10;82.90
64855;DHT22;51321;50.428;8.378;2022-07-23T10:06:39;25.10;82.30
64855;DHT22;51321;50.428;8.378;2022-07-23T10:09:25;25.40;81.20
64855;DHT22;51321;50.428;8.378;2022-07-23T10:12:13;25.50;80.60
64855;DHT22;51321;50.428;8.378;2022-07-23T10:14:56;25.30;81.70
64855;DHT22;51321;50.428;8.378;2022-07-23T10:17:18;25.60;81.70
64855;DHT22;51321;50.428;8.378;2022-07-23T10:19:41;25.30;83.70
64855;DHT22;51321;50.428;8.378;2022-07-23T10:22:04;25.40;81.40
64855;DHT22;51321;50.428;8.378;2022-07-23T10:24:40;25.20;82.80
64855;DHT22;51321;50.428;8.378;2022-07-23T10:27:34;25.30;82.20
64855;DHT22;51321;50.428;8.378;2022-07-23T10:30:03;25.00;83.40
64855;DHT22;51321;50.428;8.378;2022-07-23T10:32:37;25.10;83.90
64855;DHT22;51321;50.428;8.378;2022-07-23T10:35:10;25.10;83.10
64855;DHT22;51321;50.428;8.378;2022-07-23T10:37:37;25.20;82.90
64855;DHT22;51321;50.428;8.378;2022-07-23T10:40:14;25.20;82.80
64855;DHT22;51321;50.428;8.378;2022-07-23T10:42:37;25.70;81.90
64855;DHT22;51321;50.428;8.378;2022-07-23T10:44:59;25.50;81.10
64855;DHT22;51321;50.428;8.378;2022-07-23T10:47:25;25.20;80.20
64855;DHT22;51321;50.428;8.378;2022-07-23T10:50:22;25.00;82.10
64855;DHT22;51321;50.428;8.378;2022-07-23T10:53:08;25.70;81.00
64855;DHT22;51321;50.428;8.378;2022-07-23T10:55:51;26.00;80.40
64855;DHT22;51321;50.428;8.378;2022-07-23T10:58:18;26.30;79.90
64855;DHT22;51321;50.428;8.378;2022-07-23T11:00:40;25.90;80.10
64855;DHT22;51321;50.428;8.378;2022-07-23T11:03:04;25.70;80.60
64855;DHT22;51321;50.428;8.378;2022-07-23T11:05:40;26.20;79.80
64855;DHT22;51321;50.428;8.378;2022-07-23T11:08:17;26.30;78.30
64855;DHT22;51321;50.428;8.378;2022-07-23T11:10:42;26.00;78.70
64855;DHT22;51321;50.428;8.378;2022-07-23T11:13:29;25.20;79.60
64855;DHT22;51321;50.428;8.378;2022-07-23T11:16:05;24.90;78.60
64855;DHT22;51321;50.428;8.378;2022-07-23T11:18:53;25.30;80.20
64855;DHT22;51321;50.428;8.378;2022-07-23T11:21:42;25.80;79.70
64855;DHT22;51321;50.428;8.378;2022-07-23T11:24:05;26.00;77.90
64855;DHT22;51321;50.428;8.378;2022-07-23T11:26:44;26.50;77.40
64855;DHT22;51321;50.428;8.378;2022-07-23T11:29:37;26.90;77.10
64855;DHT22;51321;50.428;8.378;2022-07-23T11:32:00;27.40;75.30
64855;DHT22;51321;50.428;8.378;2022-07-23T11:34:29;27.50;74.20
64855;DHT22;51321;50.428;8.378;2022-07-23T11:36:52;27.60;75.00
64855;DHT22;51321;50.428;8.378;2022-07-23T11:39:14;27.20;73.70
64855;DHT22;51321;50.428;8.378;2022-07-23T11:41:43;26.60;75.80
64855;DHT22;51321;50.428;8.378;2022-07-23T11:44:24;27.30;75.20
64855;DHT22;51321;50.428;8.378;2022-07-23T11:46:54;27.60;74.30
64855;DHT22;51321;50.428;8.378;2022-07-23T11:49:17;27.50;73.30
64855;DHT22;51321;50.428;8.378;2022-07-23T11:51:38;27.00;73.60
64855;DHT22;51321;50.428;8.378;2022-07-23T11:54:06;27.20;74.60
64855;DHT22;51321;50.428;8.378;2022-07-23T11:56:28;26.60;73.70
64855;DHT22;51321;50.428;8.378;2022-07-23T11:58:55;26.00;75.20
64855;DHT22;51321;50.428;8.378;2022-07-23T12:01:18;25.70;76.50
64855;DHT22;51321;50.428;8.378;2022-07-23T12:03:49;25.70;76.70
64855;DHT22;51321;50.428;8.378;2022-07-23T12:06:10;26.00;76.10
64855;DHT22;51321;50.428;8.378;2022-07-23T12:08:32;26.00;74.90
64855;DHT22;51321;50.428;8.378;2022-07-23T12:10:55;25.70;75.40
64855;DHT22;51321;50.428;8.378;2022-07-23T12:13:19;25.70;74.50
64855;DHT22;51321;50.428;8.378;2022-07-23T12:15:45;26.10;74.80
64855;DHT22;51321;50.428;8.378;2022-07-23T12:18:10;26.20;73.90
64855;DHT22;51321;50.428;8.378;2022-07-23T12:20:35;26.50;72.10
64855;DHT22;51321;50.428;8.378;2022-07-23T12:22:59;27.10;72.60
64855;DHT22;51321;50.428;8.378;2022-07-23T12:25:23;27.60;72.10
64855;DHT22;51321;50.428;8.378;2022-07-23T12:27:58;28.00;71.50
64855;DHT22;51321;50.428;8.378;2022-07-23T12:30:25;28.40;70.70
64855;DHT22;51321;50.428;8.378;2022-07-23T12:32:48;28.10;68.30
64855;DHT22;51321;50.428;8.378;2022-07-23T12:35:10;27.90;69.30
64855;DHT22;51321;50.428;8.378;2022-07-23T12:37:33;28.00;69.30
64855;DHT22;51321;50.428;8.378;2022-07-23T12:39:55;28.00;69.30
64855;DHT22;51321;50.428;8.378;2022-07-23T12:42:17;28.50;68.20
64855;DHT22;51321;50.428;8.378;2022-07-23T12:44:40;27.90;68.40
64855;DHT22;51321;50.428;8.378;2022-07-23T12:47:05;27.30;70.90
64855;DHT22;51321;50.428;8.378;2022-07-23T12:49:27;27.40;69.00
64855;DHT22;51321;50.428;8.378;2022-07-23T12:51:49;26.90;69.10
64855;DHT22;51321;50.428;8.378;2022-07-23T12:54:11;26.90;69.00
64855;DHT22;51321;50.428;8.378;2022-07-23T12:56:34;27.20;69.70
64855;DHT22;51321;50.428;8.378;2022-07-23T12:58:57;27.20;67.30
64855;DHT22;51321;50.428;8.378;2022-07-23T13:01:25;27.20;68.00
64855;DHT22;51321;50.428;8.378;2022-07-23T13:03:56;27.20;67.50
64855;DHT22;51321;50.428;8.378;2022-07-23T13:06:17;27.50;67.20
64855;DHT22;51321;50.428;8.378;2022-07-23T13:08:39;27.60;66.50
64855;DHT22;51321;50.428;8.378;2022-07-23T13:11:02;28.00;65.40
64855;DHT22;51321;50.428;8.378;2022-07-23T13:13:27;27.90;65.40
64855;DHT22;51321;50.428;8.378;2022-07-23T13:15:49;27.90;64.30
64855;DHT22;51321;50.428;8.378;2022-07-23T13:18:12;27.50;65.30
64855;DHT22;51321;50.428;8.378;2022-07-23T13:20:34;28.00;66.40
64855;DHT22;51321;50.428;8.378;2022-07-23T13:22:56;28.20;64.30
64855;DHT22;51321;50.428;8.378;2022-07-23T13:25:18;28.00;64.10
64855;DHT22;51321;50.428;8.378;2022-07-23T13:27:40;27.50;64.30
64855;DHT22;51321;50.428;8.378;2022-07-23T13:30:02;27.20;65.20
64855;DHT22;51321;50.428;8.378;2022-07-23T13:32:24;27.60;65.60
64855;DHT22;51321;50.428;8.378;2022-07-23T13:34:47;27.60;64.70
64855;DHT22;51321;50.428;8.378;2022-07-23T13:37:09;27.40;65.60
64855;DHT22;51321;50.428;8.378;2022-07-23T13:39:31;27.60;65.30
64855;DHT22;51321;50.428;8.378;2022-07-23T13:41:52;27.50;64.40
64855;DHT22;51321;50.428;8.378;2022-07-23T13:44:14;27.30;64.90
64855;DHT22;51321;50.428;8.378;2022-07-23T13:46:36;27.50;64.80
64855;DHT22;51321;50.428;8.378;2022-07-23T13:48:57;27.30;64.20
64855;DHT22;51321;50.428;8.378;2022-07-23T13:51:21;27.90;66.20
64855;DHT22;51321;50.428;8.378;2022-07-23T13:53:45;28.30;62.60
64855;DHT22;51321;50.428;8.378;2022-07-23T13:56:07;28.50;62.20
64855;DHT22;51321;50.428;8.378;2022-07-23T13:58:29;28.40;61.40
64855;DHT22;51321;50.428;8.378;2022-07-23T14:00:52;27.80;62.20
64855;DHT22;51321;50.428;8.378;2022-07-23T14:03:15;27.80;62.90
64855;DHT22;51321;50.428;8.378;2022-07-23T14:05:37;28.00;62.40
64855;DHT22;51321;50.428;8.378;2022-07-23T14:08:03;27.90;62.90
64855;DHT22;51321;50.428;8.378;2022-07-23T14:10:26;27.90;62.30
64855;DHT22;51321;50.428;8.378;2022-07-23T14:12:48;28.00;62.90
64855;DHT22;51321;50.428;8.378;2022-07-23T14:15:12;28.10;61.80
64855;DHT22;51321;50.428;8.378;2022-07-23T14:17:34;27.90;59.90
64855;DHT22;51321;50.428;8.378;2022-07-23T14:19:56;27.90;61.30
64855;DHT22;51321;50.428;8.378;2022-07-23T14:22:17;28.20;59.10
64855;DHT22;51321;50.428;8.378;2022-07-23T14:24:40;28.40;59.80
64855;DHT22;51321;50.428;8.378;2022-07-23T14:27:04;28.50;60.60
64855;DHT22;51321;50.428;8.378;2022-07-23T14:29:26;28.80;59.70
64855;DHT22;51321;50.428;8.378;2022-07-23T14:31:47;29.40;59.70
64855;DHT22;51321;50.428;8.378;2022-07-23T14:34:09;29.50;58.60
64855;DHT22;51321;50.428;8.378;2022-07-23T14:36:32;28.60;59.10
64855;DHT22;51321;50.428;8.378;2022-07-23T14:38:53;28.50;60.60
64855;DHT22;51321;50.428;8.378;2022-07-23T14:41:17;28.50;59.40
64855;DHT22;51321;50.428;8.378;2022-07-23T14:43:39;28.80;60.40
64855;DHT22;51321;50.428;8.378;2022-07-23T14:46:01;28.70;59.60
64855;DHT22;51321;50.428;8.378;2022-07-23T14:48:23;28.80;58.90
64855;DHT22;51321;50.428;8.378;2022-07-23T14:50:44;29.10;58.10
64855;DHT22;51321;50.428;8.378;2022-07-23T14:53:06;29.40;57.90
64855;DHT22;51321;50.428;8.378;2022-07-23T14:55:28;29.00;57.40
64855;DHT22;51321;50.428;8.378;2022-07-23T14:57:53;29.30;58.30
64855;DHT22;51321;50.428;8.378;2022-07-23T15:00:15;29.50;59.30
64855;DHT22;51321;50.428;8.378;2022-07-23T15:02:37;29.40;59.30
64855;DHT22;51321;50.428;8.378;2022-07-23T15:04:58;29.60;57.60
64855;DHT22;51321;50.428;8.378;2022-07-23T15:07:21;29.60;56.90
64855;DHT22;51321;50.428;8.378;2022-07-23T15:09:43;29.60;58.00